Time;durP1;ratioP1;P1;durP2;ratioP2;P2;SDS_P1;SDS_P2;PMS_P1;PMS_P2;Temp;Humidity;BMP_temperature;BMP_pressure;BME280_temperature;BME280_humidity;BME280_pressure;Samples;Min_cycle;Max_cycle;Signal;HPM_P1;HPM_P2
2022/06/30 00:01:06;;;;;;;5.00;2.38;;;;;;;;;;10265560;28;20518;-48
2022/06/30 00:06:06;;;;;;;4.95;2.60;;;;;;;;;;10307910;28;20358;-49
2022/06/30 00:11:07;;;;;;;3.97;2.60;;;;;;;;;;10270927;28;20038;-51
2022/06/30 00:16:08;;;;;;;6.25;2.83;;;;;;;;;;10295935;28;20057;-50
2022/06/30 00:21:09;;;;;;;3.80;2.55;;;;;;;;;;10306636;28;20038;-51
2022/06/30 00:26:10;;;;;;;7.30;2.72;;;;;;;;;;10314039;28;20049;-52
2022/06/30 00:31:10;;;;;;;9.88;2.45;;;;;;;;;;10308766;28;20030;-53
2022/06/30 00:36:11;;;;;;;5.15;2.75;;;;;;;;;;10311696;28;20089;-52
2022/06/30 00:41:11;;;;;;;12.05;2.97;;;;;;;;;;10308416;28;20022;-51
2022/06/30 00:46:14;;;;;;;4.28;2.58;;;;;;;;;;10317507;28;20037;-49
2022/06/30 00:51:14;;;;;;;13.70;2.95;;;;;;;;;;10309300;28;20429;-50
2022/06/30 00:56:17;;;;;;;8.35;2.55;;;;;;;;;;10320019;28;20026;-51
2022/06/30 01:01:19;;;;;;;5.55;2.80;;;;;;;;;;10313085;28;20410;-51
2022/06/30 01:06:21;;;;;;;3.50;2.15;;;;;;;;;;10308341;28;20034;-49
2022/06/30 01:16:41;;;;;;;6.68;2.60;;;;;;;;;;10303560;28;20038;-48
2022/06/30 01:21:59;;;;;;;6.70;2.50;;;;;;;;;;10306977;28;20039;-50
2022/06/30 01:27:00;;;;;;;4.95;2.65;;;;;;;;;;10310228;28;20075;-50
2022/06/30 01:32:00;;;;;;;7.13;2.17;;;;;;;;;;10309922;28;20034;-49
2022/06/30 01:37:01;;;;;;;2.35;2.15;;;;;;;;;;10305111;28;20026;-51
2022/06/30 01:42:02;;;;;;;5.07;2.25;;;;;;;;;;10323699;28;20030;-52
2022/06/30 01:47:04;;;;;;;12.20;2.33;;;;;;;;;;10307487;28;20034;-51
2022/06/30 01:52:05;;;;;;;6.50;2.58;;;;;;;;;;10304071;28;20106;-51
2022/06/30 01:57:06;;;;;;;5.00;2.88;;;;;;;;;;10308713;28;20034;-51
2022/06/30 02:02:06;;;;;;;4.03;2.10;;;;;;;;;;10316339;28;20397;-52
2022/06/30 02:07:07;;;;;;;3.25;2.17;;;;;;;;;;10327368;28;20037;-50
2022/06/30 02:17:27;;;;;;;8.52;2.05;;;;;;;;;;10299634;28;20430;-51
2022/06/30 02:22:29;;;;;;;3.40;2.00;;;;;;;;;;10318311;28;20022;-53
2022/06/30 02:27:30;;;;;;;3.20;2.08;;;;;;;;;;10307553;28;20065;-50
2022/06/30 02:32:30;;;;;;;6.68;2.10;;;;;;;;;;10314664;28;20039;-50
2022/06/30 02:37:31;;;;;;;3.55;1.83;;;;;;;;;;10314491;28;20425;-52
2022/06/30 02:42:32;;;;;;;7.03;2.72;;;;;;;;;;10316987;28;20081;-51
2022/06/30 02:47:38;;;;;;;10.15;2.30;;;;;;;;;;10319148;28;20066;-50
2022/06/30 02:52:39;;;;;;;6.53;2.20;;;;;;;;;;10309717;28;20026;-49
2022/06/30 02:57:40;;;;;;;4.80;2.15;;;;;;;;;;10323044;28;20036;-52
2022/06/30 03:02:43;;;;;;;3.78;2.10;;;;;;;;;;10324775;28;20470;-53
2022/06/30 03:07:44;;;;;;;4.15;2.35;;;;;;;;;;10312764;28;20033;-51
2022/06/30 03:12:44;;;;;;;10.77;2.35;;;;;;;;;;10320213;28;20398;-52
2022/06/30 03:17:45;;;;;;;3.85;2.25;;;;;;;;;;10321680;28;20390;-52
2022/06/30 03:22:46;;;;;;;5.97;2.53;;;;;;;;;;10311587;28;20050;-51
2022/06/30 03:27:46;;;;;;;7.07;2.45;;;;;;;;;;10323043;28;20049;-49
2022/06/30 03:32:47;;;;;;;4.25;2.10;;;;;;;;;;10323560;28;20023;-49
2022/06/30 03:37:47;;;;;;;3.47;1.98;;;;;;;;;;10310292;28;20042;-49
2022/06/30 03:42:48;;;;;;;4.05;2.05;;;;;;;;;;10312111;28;20034;-52
2022/06/30 03:47:48;;;;;;;7.93;2.22;;;;;;;;;;10312051;28;20026;-51
2022/06/30 03:52:49;;;;;;;4.22;1.90;;;;;;;;;;10320822;28;20035;-49
2022/06/30 03:57:49;;;;;;;3.67;2.00;;;;;;;;;;10307223;28;20123;-48
2022/06/30 04:02:50;;;;;;;3.42;2.00;;;;;;;;;;10315283;28;20027;-48
2022/06/30 04:07:51;;;;;;;5.18;2.05;;;;;;;;;;10317692;28;20390;-48
2022/06/30 04:12:51;;;;;;;3.20;2.00;;;;;;;;;;10321667;28;20410;-49
2022/06/30 04:17:52;;;;;;;4.13;2.13;;;;;;;;;;10311545;28;20046;-49
2022/06/30 04:22:53;;;;;;;4.32;2.13;;;;;;;;;;10317818;28;20250;-48
2022/06/30 04:27:56;;;;;;;4.60;2.10;;;;;;;;;;10305776;28;20061;-51
2022/06/30 04:32:56;;;;;;;3.58;2.20;;;;;;;;;;10319074;28;20066;-54
2022/06/30 04:38:02;;;;;;;3.22;2.22;;;;;;;;;;10312701;28;20034;-53
2022/06/30 04:43:02;;;;;;;3.25;1.98;;;;;;;;;;10308677;28;20439;-51
2022/06/30 04:48:03;;;;;;;5.97;2.30;;;;;;;;;;10306317;28;20058;-49
2022/06/30 04:53:04;;;;;;;5.07;2.00;;;;;;;;;;10314131;28;20037;-50
2022/06/30 04:58:05;;;;;;;4.95;1.80;;;;;;;;;;10306449;28;20045;-53
2022/06/30 05:03:06;;;;;;;9.25;2.28;;;;;;;;;;10301606;28;20031;-54
2022/06/30 05:08:06;;;;;;;4.03;2.20;;;;;;;;;;10330763;28;20029;-53
2022/06/30 05:13:07;;;;;;;6.85;2.35;;;;;;;;;;10319800;28;20375;-51
2022/06/30 05:18:08;;;;;;;11.27;2.50;;;;;;;;;;10319385;28;20389;-46
2022/06/30 05:23:10;;;;;;;5.45;2.70;;;;;;;;;;10309812;28;20030;-52
2022/06/30 05:28:10;;;;;;;4.03;2.42;;;;;;;;;;10304963;28;20059;-55
2022/06/30 05:33:12;;;;;;;5.10;2.70;;;;;;;;;;10299886;28;20052;-56
2022/06/30 05:38:14;;;;;;;9.45;3.25;;;;;;;;;;10317551;28;20042;-55
2022/06/30 05:43:16;;;;;;;9.18;3.05;;;;;;;;;;10316988;28;20065;-56
2022/06/30 05:48:18;;;;;;;10.35;3.78;;;;;;;;;;10317685;28;20031;-56
2022/06/30 05:53:18;;;;;;;7.32;3.40;;;;;;;;;;10303005;28;20470;-57
2022/06/30 05:58:19;;;;;;;13.52;3.97;;;;;;;;;;10313909;28;20088;-56
2022/06/30 06:03:19;;;;;;;13.52;4.18;;;;;;;;;;10318751;28;20437;-56
2022/06/30 06:08:20;;;;;;;14.27;3.88;;;;;;;;;;10324988;28;20029;-54
2022/06/30 06:13:21;;;;;;;10.10;4.60;;;;;;;;;;10313776;28;20034;-56
2022/06/30 06:18:21;;;;;;;12.82;4.00;;;;;;;;;;10318357;28;20031;-55
2022/06/30 06:23:22;;;;;;;17.58;4.25;;;;;;;;;;10319150;28;20027;-54
2022/06/30 06:33:43;;;;;;;13.82;3.97;;;;;;;;;;10313195;28;20022;-56
2022/06/30 06:38:44;;;;;;;13.23;4.72;;;;;;;;;;10284467;28;20372;-57
2022/06/30 06:43:44;;;;;;;21.65;4.90;;;;;;;;;;10290623;28;20019;-57
2022/06/30 06:48:45;;;;;;;23.80;5.10;;;;;;;;;;10294957;28;20054;-58
2022/06/30 06:53:46;;;;;;;14.38;4.88;;;;;;;;;;10293936;28;20105;-55
2022/06/30 06:58:46;;;;;;;17.30;4.60;;;;;;;;;;10315421;28;20101;-55
2022/06/30 07:03:47;;;;;;;16.50;4.47;;;;;;;;;;10320899;28;20401;-56
2022/06/30 07:08:48;;;;;;;29.50;5.00;;;;;;;;;;10319513;28;20170;-55
2022/06/30 07:13:48;;;;;;;11.13;4.57;;;;;;;;;;10303080;28;20031;-56
2022/06/30 07:18:49;;;;;;;14.88;4.70;;;;;;;;;;10314991;28;20034;-55
2022/06/30 07:23:49;;;;;;;16.50;4.57;;;;;;;;;;10309942;28;20050;-56
2022/06/30 07:28:50;;;;;;;11.95;4.60;;;;;;;;;;10319101;28;20035;-55
2022/06/30 07:33:51;;;;;;;16.05;4.90;;;;;;;;;;10316653;28;20047;-55
2022/06/30 07:38:52;;;;;;;13.40;4.35;;;;;;;;;;10308638;28;20397;-56
2022/06/30 07:43:52;;;;;;;9.30;4.03;;;;;;;;;;10314577;28;20030;-56
2022/06/30 07:48:53;;;;;;;15.13;4.35;;;;;;;;;;10325132;28;20328;-56
2022/06/30 07:53:53;;;;;;;12.77;4.10;;;;;;;;;;10302880;28;20368;-56
2022/06/30 07:58:54;;;;;;;23.70;5.05;;;;;;;;;;10315455;28;20586;-56
2022/06/30 08:03:55;;;;;;;18.98;4.85;;;;;;;;;;10306366;28;20038;-56
2022/06/30 08:08:55;;;;;;;10.25;3.70;;;;;;;;;;10319404;28;20039;-56
2022/06/30 08:13:56;;;;;;;14.88;4.82;;;;;;;;;;10310933;28;20042;-56
2022/06/30 08:18:56;;;;;;;14.30;4.05;;;;;;;;;;10309493;28;20041;-56
2022/06/30 08:23:57;;;;;;;13.77;4.15;;;;;;;;;;10314398;28;20046;-57
2022/06/30 08:28:58;;;;;;;13.98;4.80;;;;;;;;;;10316050;28;20454;-57
2022/06/30 08:33:58;;;;;;;19.35;5.05;;;;;;;;;;10311746;28;20418;-56
2022/06/30 08:38:59;;;;;;;17.08;4.95;;;;;;;;;;10312433;28;20034;-56
2022/06/30 08:44:00;;;;;;;13.60;4.50;;;;;;;;;;10316014;28;20231;-56
2022/06/30 08:49:01;;;;;;;21.50;4.90;;;;;;;;;;10322416;28;20446;-56
2022/06/30 08:54:05;;;;;;;16.85;4.38;;;;;;;;;;10317947;28;20109;-56
2022/06/30 08:59:05;;;;;;;15.05;4.43;;;;;;;;;;10321699;28;20057;-56
2022/06/30 09:04:07;;;;;;;21.70;5.20;;;;;;;;;;10320549;28;20037;-56
2022/06/30 09:09:07;;;;;;;14.82;4.88;;;;;;;;;;10324453;28;20381;-56
2022/06/30 09:14:08;;;;;;;16.48;4.53;;;;;;;;;;10321230;28;20025;-56
2022/06/30 09:19:09;;;;;;;17.45;4.65;;;;;;;;;;10323973;28;20401;-56
2022/06/30 09:24:22;;;;;;;14.95;5.00;;;;;;;;;;10318519;28;20039;-56
2022/06/30 09:29:23;;;;;;;11.90;4.35;;;;;;;;;;10316886;28;20397;-56
2022/06/30 09:34:24;;;;;;;13.32;4.72;;;;;;;;;;10315141;28;20030;-56
2022/06/30 09:39:24;;;;;;;11.05;4.25;;;;;;;;;;10312907;28;20030;-56
2022/06/30 09:44:25;;;;;;;12.38;4.60;;;;;;;;;;10321016;28;20026;-57
2022/06/30 09:49:28;;;;;;;16.00;4.30;;;;;;;;;;10311467;28;20042;-56
2022/06/30 09:54:33;;;;;;;14.68;4.88;;;;;;;;;;10315109;28;20027;-57
2022/06/30 09:59:35;;;;;;;19.40;5.78;;;;;;;;;;10306420;28;20118;-56
2022/06/30 10:05:06;;;;;;;21.65;5.78;;;;;;;;;;10295283;28;20455;-57
2022/06/30 10:10:11;;;;;;;21.42;5.35;;;;;;;;;;10299650;28;20126;-56
2022/06/30 10:15:14;;;;;;;21.52;4.90;;;;;;;;;;10308742;28;20386;-56
2022/06/30 10:20:15;;;;;;;21.73;5.65;;;;;;;;;;10303258;28;20130;-57
2022/06/30 10:25:17;;;;;;;15.43;4.95;;;;;;;;;;10306411;28;20085;-59
2022/06/30 10:30:23;;;;;;;12.50;4.65;;;;;;;;;;10290511;28;20042;-57
2022/06/30 10:36:20;;;;;;;17.15;4.43;;;;;;;;;;10298641;28;20077;-59
2022/06/30 10:41:24;;;;;;;17.33;5.00;;;;;;;;;;10305400;28;20127;-57
2022/06/30 10:46:24;;;;;;;12.77;4.32;;;;;;;;;;10303336;28;20083;-57
2022/06/30 10:51:26;;;;;;;13.57;4.30;;;;;;;;;;10311188;28;20027;-57
2022/06/30 10:56:48;;;;;;;15.80;4.78;;;;;;;;;;10327945;28;20034;-56
2022/06/30 11:02:07;;;;;;;14.98;4.20;;;;;;;;;;10300207;28;20031;-55
2022/06/30 11:07:23;;;;;;;11.02;4.38;;;;;;;;;;10317575;28;20117;-56
2022/06/30 11:12:29;;;;;;;10.48;3.70;;;;;;;;;;10326687;28;20026;-57
2022/06/30 11:17:37;;;;;;;10.45;4.32;;;;;;;;;;10320406;28;20440;-57
2022/06/30 11:22:38;;;;;;;12.45;4.47;;;;;;;;;;10324395;28;20038;-57
2022/06/30 11:27:39;;;;;;;11.52;4.32;;;;;;;;;;10313629;28;20059;-57
2022/06/30 11:32:39;;;;;;;10.50;4.05;;;;;;;;;;10314075;28;20034;-57
2022/06/30 11:37:40;;;;;;;14.60;4.43;;;;;;;;;;10325685;28;20034;-57
2022/06/30 11:42:41;;;;;;;13.73;4.45;;;;;;;;;;10312788;28;20019;-57
2022/06/30 11:47:42;;;;;;;7.28;3.58;;;;;;;;;;10323711;28;20125;-57
2022/06/30 11:52:42;;;;;;;10.75;3.97;;;;;;;;;;10317594;28;20034;-60
2022/06/30 11:57:48;;;;;;;8.60;3.88;;;;;;;;;;10326013;28;20233;-57
2022/06/30 12:02:50;;;;;;;10.18;3.90;;;;;;;;;;10316448;28;20097;-57
2022/06/30 12:07:51;;;;;;;10.68;3.90;;;;;;;;;;10311802;28;20031;-58
2022/06/30 12:12:52;;;;;;;11.30;3.60;;;;;;;;;;10312725;28;20474;-57
2022/06/30 12:17:57;;;;;;;11.70;3.90;;;;;;;;;;10313073;28;20034;-58
2022/06/30 12:23:02;;;;;;;6.80;3.45;;;;;;;;;;10299862;28;20503;-57
2022/06/30 12:28:03;;;;;;;6.82;3.30;;;;;;;;;;10302202;28;20050;-57
2022/06/30 12:33:07;;;;;;;5.38;3.15;;;;;;;;;;10321521;28;20026;-57
2022/06/30 12:38:19;;;;;;;14.60;3.53;;;;;;;;;;10310795;28;20501;-57
2022/06/30 12:43:20;;;;;;;11.38;3.38;;;;;;;;;;10301100;28;20023;-57
2022/06/30 12:48:54;;;;;;;8.63;3.70;;;;;;;;;;10321754;28;20023;-57
2022/06/30 12:54:06;;;;;;;6.05;3.10;;;;;;;;;;10302760;28;20031;-57
2022/06/30 12:59:18;;;;;;;11.43;3.22;;;;;;;;;;10300692;28;20038;-57
2022/06/30 13:04:24;;;;;;;11.75;3.28;;;;;;;;;;10300107;28;20039;-57
2022/06/30 13:09:35;;;;;;;9.40;3.72;;;;;;;;;;10304408;28;20442;-56
2022/06/30 13:14:36;;;;;;;5.93;3.08;;;;;;;;;;10299727;28;20041;-56
2022/06/30 13:19:38;;;;;;;8.98;3.47;;;;;;;;;;10302561;28;20042;-57
2022/06/30 13:24:42;;;;;;;7.57;3.10;;;;;;;;;;10316735;28;20138;-56
2022/06/30 13:29:43;;;;;;;8.07;3.83;;;;;;;;;;10308952;28;20121;-56
2022/06/30 13:34:43;;;;;;;7.28;3.55;;;;;;;;;;10292180;28;20031;-57
2022/06/30 13:39:44;;;;;;;7.15;3.20;;;;;;;;;;10304473;28;20612;-57
2022/06/30 13:44:44;;;;;;;8.05;3.08;;;;;;;;;;10307430;28;20528;-57
2022/06/30 13:49:45;;;;;;;5.95;2.70;;;;;;;;;;10311777;28;20088;-56
2022/06/30 13:54:46;;;;;;;9.77;3.08;;;;;;;;;;10321297;28;20026;-57
2022/06/30 13:59:47;;;;;;;7.60;3.50;;;;;;;;;;10320862;28;20493;-56
2022/06/30 14:04:47;;;;;;;7.20;3.55;;;;;;;;;;10310134;28;20035;-56
2022/06/30 14:09:48;;;;;;;8.68;3.28;;;;;;;;;;10308978;28;20030;-56
2022/06/30 14:14:48;;;;;;;5.13;2.92;;;;;;;;;;10313913;28;20065;-56
2022/06/30 14:19:49;;;;;;;6.88;2.90;;;;;;;;;;10311718;28;20478;-57
2022/06/30 14:24:50;;;;;;;4.75;2.80;;;;;;;;;;10318177;28;20553;-56
2022/06/30 14:29:50;;;;;;;7.95;2.80;;;;;;;;;;10314981;28;20038;-56
2022/06/30 14:34:51;;;;;;;7.68;2.70;;;;;;;;;;10321389;28;20066;-57
2022/06/30 14:39:51;;;;;;;7.03;2.83;;;;;;;;;;10299760;28;20031;-57
2022/06/30 14:44:52;;;;;;;7.25;2.97;;;;;;;;;;10327753;28;20039;-56
2022/06/30 14:49:53;;;;;;;7.20;3.45;;;;;;;;;;10326142;28;20084;-56
2022/06/30 14:54:53;;;;;;;6.75;2.83;;;;;;;;;;10326615;28;20065;-57
2022/06/30 14:59:54;;;;;;;5.70;2.90;;;;;;;;;;10332261;28;20045;-57
2022/06/30 15:04:54;;;;;;;10.65;3.60;;;;;;;;;;10325178;28;20065;-57
2022/06/30 15:09:55;;;;;;;4.50;2.65;;;;;;;;;;10330957;28;20027;-56
2022/06/30 15:14:56;;;;;;;8.30;4.25;;;;;;;;;;10322726;28;20445;-56
2022/06/30 15:19:56;;;;;;;14.43;3.40;;;;;;;;;;10321844;28;20074;-57
2022/06/30 15:24:57;;;;;;;7.70;3.40;;;;;;;;;;10328195;28;20124;-56
2022/06/30 15:29:58;;;;;;;13.38;3.30;;;;;;;;;;10310077;28;20042;-56
2022/06/30 15:35:02;;;;;;;5.72;3.30;;;;;;;;;;10311727;28;20081;-57
2022/06/30 15:40:06;;;;;;;8.20;3.35;;;;;;;;;;10321415;28;20393;-57
2022/06/30 15:45:08;;;;;;;6.53;3.13;;;;;;;;;;10300277;28;20058;-57
2022/06/30 15:50:09;;;;;;;6.15;2.95;;;;;;;;;;10319692;28;20100;-57
2022/06/30 15:55:11;;;;;;;8.00;3.15;;;;;;;;;;10314416;28;20080;-56
2022/06/30 16:00:12;;;;;;;6.57;3.17;;;;;;;;;;10301354;28;20034;-56
2022/06/30 16:05:14;;;;;;;9.07;2.97;;;;;;;;;;10326758;28;20037;-56
2022/06/30 16:10:15;;;;;;;6.63;3.15;;;;;;;;;;10312771;28;20486;-57
2022/06/30 16:15:16;;;;;;;7.18;3.33;;;;;;;;;;10316143;28;20022;-56
2022/06/30 16:20:16;;;;;;;8.52;3.28;;;;;;;;;;10312986;28;20022;-58
2022/06/30 16:25:17;;;;;;;11.98;3.97;;;;;;;;;;10312697;28;20132;-57
2022/06/30 16:30:17;;;;;;;11.73;3.95;;;;;;;;;;10328124;28;20034;-58
2022/06/30 16:35:18;;;;;;;15.00;3.55;;;;;;;;;;10303095;28;20049;-59
2022/06/30 16:40:19;;;;;;;13.38;3.95;;;;;;;;;;10310897;28;20041;-54
2022/06/30 16:45:23;;;;;;;9.02;3.38;;;;;;;;;;10304962;28;20393;-59
2022/06/30 16:50:25;;;;;;;9.50;3.58;;;;;;;;;;10301422;28;20496;-59
2022/06/30 16:55:30;;;;;;;7.80;3.40;;;;;;;;;;10303478;28;20463;-59
2022/06/30 17:00:31;;;;;;;7.63;3.40;;;;;;;;;;10305065;28;20022;-59
2022/06/30 17:05:32;;;;;;;6.32;2.72;;;;;;;;;;10318545;28;20022;-59
2022/06/30 17:10:34;;;;;;;11.07;3.22;;;;;;;;;;10297913;28;20378;-59
2022/06/30 17:15:35;;;;;;;14.10;4.13;;;;;;;;;;10315338;28;20030;-59
2022/06/30 17:20:36;;;;;;;10.43;3.92;;;;;;;;;;10307553;28;20478;-59
2022/06/30 17:25:36;;;;;;;17.02;4.57;;;;;;;;;;10308073;28;20092;-55
2022/06/30 17:30:37;;;;;;;18.13;4.45;;;;;;;;;;10318528;28;20642;-62
2022/06/30 17:35:37;;;;;;;16.77;4.95;;;;;;;;;;10294902;28;20089;-62
2022/06/30 17:40:41;;;;;;;28.02;5.63;;;;;;;;;;10311984;28;20037;-63
2022/06/30 17:45:42;;;;;;;15.68;4.75;;;;;;;;;;10301037;28;21748;-63
2022/06/30 17:50:43;;;;;;;22.08;4.35;;;;;;;;;;10297058;28;20030;-62
2022/06/30 17:55:45;;;;;;;19.90;5.38;;;;;;;;;;10311072;28;20117;-64
2022/06/30 18:00:48;;;;;;;19.45;5.07;;;;;;;;;;10311915;28;20053;-60
2022/06/30 18:05:51;;;;;;;22.85;5.30;;;;;;;;;;10303480;28;20061;-60
2022/06/30 18:16:12;;;;;;;14.05;4.40;;;;;;;;;;10297601;28;20042;-60
2022/06/30 18:21:14;;;;;;;12.27;4.32;;;;;;;;;;10316385;28;20160;-58
2022/06/30 18:26:15;;;;;;;17.95;5.03;;;;;;;;;;10304657;28;20181;-60
2022/06/30 18:31:16;;;;;;;12.90;5.00;;;;;;;;;;10303542;28;20092;-62
2022/06/30 18:36:19;;;;;;;20.58;4.30;;;;;;;;;;10304270;28;20355;-61
2022/06/30 18:41:25;;;;;;;21.23;4.88;;;;;;;;;;10292035;28;20038;-58
2022/06/30 18:46:34;;;;;;;18.90;4.47;;;;;;;;;;10305216;28;20085;-58
2022/06/30 18:51:41;;;;;;;22.13;4.60;;;;;;;;;;10304526;28;20035;-58
2022/06/30 18:56:42;;;;;;;17.80;4.75;;;;;;;;;;10296786;28;20038;-58
2022/06/30 19:01:42;;;;;;;12.38;4.30;;;;;;;;;;10293881;28;20527;-59
2022/06/30 19:06:43;;;;;;;19.02;4.47;;;;;;;;;;10304164;28;20037;-59
2022/06/30 19:11:44;;;;;;;29.67;5.30;;;;;;;;;;10307721;28;20034;-59
2022/06/30 19:16:44;;;;;;;20.25;4.97;;;;;;;;;;10313832;28;20556;-59
2022/06/30 19:21:45;;;;;;;24.80;4.93;;;;;;;;;;10307994;28;20398;-62
2022/06/30 19:26:45;;;;;;;14.18;4.30;;;;;;;;;;10302719;28;20046;-63
2022/06/30 19:31:46;;;;;;;16.02;4.68;;;;;;;;;;10314825;28;20030;-62
2022/06/30 19:36:47;;;;;;;12.77;3.90;;;;;;;;;;10319689;28;20039;-63
2022/06/30 19:41:48;;;;;;;13.40;4.25;;;;;;;;;;10321564;28;20041;-62
2022/06/30 19:46:48;;;;;;;17.52;4.03;;;;;;;;;;10333737;28;20402;-62
2022/06/30 19:51:49;;;;;;;17.13;4.05;;;;;;;;;;10313627;28;20441;-62
2022/06/30 19:56:49;;;;;;;12.60;4.18;;;;;;;;;;10313792;28;20038;-62
2022/06/30 20:01:50;;;;;;;13.18;4.47;;;;;;;;;;10325703;28;20034;-60
2022/06/30 20:06:52;;;;;;;13.27;4.07;;;;;;;;;;10314479;28;20045;-62
2022/06/30 20:11:52;;;;;;;9.57;3.63;;;;;;;;;;10317577;28;20034;-62
2022/06/30 20:16:55;;;;;;;13.02;3.75;;;;;;;;;;10309068;28;20042;-63
2022/06/30 20:21:56;;;;;;;15.75;4.13;;;;;;;;;;10316096;28;20397;-60
2022/06/30 20:26:57;;;;;;;16.25;4.60;;;;;;;;;;10318669;28;20046;-59
2022/06/30 20:31:57;;;;;;;18.27;3.75;;;;;;;;;;10313346;28;20401;-59
2022/06/30 20:36:58;;;;;;;14.75;4.68;;;;;;;;;;10315527;28;20034;-58
2022/06/30 20:41:59;;;;;;;9.00;3.53;;;;;;;;;;10321052;28;20078;-59
2022/06/30 20:46:59;;;;;;;8.15;3.33;;;;;;;;;;10321136;28;20398;-59
2022/06/30 20:52:00;;;;;;;9.13;3.25;;;;;;;;;;10319531;28;20022;-59
2022/06/30 20:57:03;;;;;;;7.47;2.92;;;;;;;;;;10323419;28;20030;-57
2022/06/30 21:02:04;;;;;;;11.18;3.38;;;;;;;;;;10316132;28;20030;-59
2022/06/30 21:07:05;;;;;;;17.92;4.25;;;;;;;;;;10308497;28;20022;-59
2022/06/30 21:12:06;;;;;;;15.85;3.40;;;;;;;;;;10324541;28;20019;-60
2022/06/30 21:17:07;;;;;;;10.43;3.42;;;;;;;;;;10310978;28;20034;-59
2022/06/30 21:22:08;;;;;;;30.02;3.75;;;;;;;;;;10315833;28;20038;-64
2022/06/30 21:27:10;;;;;;;22.52;4.25;;;;;;;;;;10312215;28;20035;-65
2022/06/30 21:32:10;;;;;;;16.38;4.47;;;;;;;;;;10300693;28;20363;-64
2022/06/30 21:37:12;;;;;;;20.13;3.95;;;;;;;;;;10309547;28;20031;-64
2022/06/30 21:42:12;;;;;;;24.90;4.28;;;;;;;;;;10301116;28;20027;-63
2022/06/30 21:47:13;;;;;;;20.10;3.50;;;;;;;;;;10300689;28;20066;-62
2022/06/30 21:52:14;;;;;;;13.43;3.63;;;;;;;;;;10297416;28;20101;-64
2022/06/30 21:57:14;;;;;;;31.25;4.05;;;;;;;;;;10299579;28;20034;-65
2022/06/30 22:02:15;;;;;;;17.25;3.40;;;;;;;;;;10300206;28;20393;-64
2022/06/30 22:07:16;;;;;;;8.32;2.92;;;;;;;;;;10295952;28;20422;-62
2022/06/30 22:12:17;;;;;;;19.63;3.60;;;;;;;;;;10295708;28;20033;-65
2022/06/30 22:17:19;;;;;;;22.30;2.97;;;;;;;;;;10295772;28;20042;-61
2022/06/30 22:22:20;;;;;;;14.13;3.40;;;;;;;;;;10295973;28;20046;-64
2022/06/30 22:27:20;;;;;;;11.27;3.40;;;;;;;;;;10298517;28;20126;-63
2022/06/30 22:32:22;;;;;;;10.63;3.42;;;;;;;;;;10300050;28;20027;-64
2022/06/30 22:37:23;;;;;;;9.13;3.92;;;;;;;;;;10310234;28;20027;-64
2022/06/30 22:42:23;;;;;;;9.23;2.90;;;;;;;;;;10297194;28;20164;-62
2022/06/30 22:47:24;;;;;;;9.75;2.40;;;;;;;;;;10301309;28;20023;-63
2022/06/30 22:52:25;;;;;;;9.63;2.90;;;;;;;;;;10302957;28;20454;-63
2022/06/30 22:57:26;;;;;;;9.70;2.88;;;;;;;;;;10314683;28;20121;-63
2022/06/30 23:02:26;;;;;;;7.95;3.30;;;;;;;;;;10318900;28;20493;-64
2022/06/30 23:07:27;;;;;;;11.85;2.88;;;;;;;;;;10305529;28;20030;-62
2022/06/30 23:12:29;;;;;;;6.50;2.45;;;;;;;;;;10301290;28;20038;-62
2022/06/30 23:17:29;;;;;;;9.52;2.95;;;;;;;;;;10313529;28;20045;-62
2022/06/30 23:22:30;;;;;;;15.98;3.22;;;;;;;;;;10320135;28;20049;-65
2022/06/30 23:27:30;;;;;;;9.88;2.50;;;;;;;;;;10302240;28;20511;-66
2022/06/30 23:32:32;;;;;;;5.10;2.40;;;;;;;;;;10301831;28;20405;-65
2022/06/30 23:37:32;;;;;;;9.63;2.78;;;;;;;;;;10302067;28;20433;-66
2022/06/30 23:42:33;;;;;;;6.78;2.55;;;;;;;;;;10303409;28;20089;-64
2022/06/30 23:47:34;;;;;;;4.55;2.33;;;;;;;;;;10305982;28;20033;-63
2022/06/30 23:52:34;;;;;;;5.70;2.28;;;;;;;;;;10318852;28;20038;-64
2022/06/30 23:57:35;;;;;;;4.45;2.45;;;;;;;;;;10317839;28;20453;-61
